首页
METAR-TAF:

METAR-TAF

机场 :

Faßberg, 德国

纬度: 52-55N, 经度: 010-11E, 海拔: 75米

当前天气观测

该预报发布于23分钟前的06:20 UTC
风速17节,风向西转西南
温度 6°C
湿度 93%
气压 1009 hPa
能見度: 8000
多云层高于700英尺
多云层高于1500英尺

METAR: ETHS 190620Z 25017KT 8000 BKN007 BKN015 06/05 Q1009 GRN GRN TEMPO YLO

时间: 07:43 (06:43 UTC)

预报

该预报发布于1小时和24分钟前的05:19 UTC
预报有效从19日的 06点(UTC)到 19日的 15点(UTC)
风速12节,风向西转西南
能見度: 6000
少量云层高于500英尺
多云层高于800英尺
短暂存在
从 19日的 06点(UTC)到 19日的 10点(UTC)
风速15节,风向西转西南,有时为26节阵风
能見度: 2000
多云层高于400英尺
小雨, 毛毛雨
成为
从 19日的 09点(UTC)到 19日的 11点(UTC)
风速12节,风向西转西南
能見度: 9000
散云层高于700英尺
多云层高于1000英尺

TAF: ETHS 190519Z 1906/1915 25012KT 6000 NSW FEW005 BKN008 TEMPO 1906/1910 24015G26KT 2000 -RADZ BKN004 BECMG 1909/1911 24012KT 9000 NSW SCT007 BKN010

超过4000个机场的气象观测和天气预报(METAR&TAF报告)。

可查询的气象台以黄色和红色小点在地图上表示。

将鼠标移到小点上方,可查看气象台名称。

然后点击查看天气观测和预报。

如需切换地图:点击带黑十字的绿色按钮放大地图;点击带横线的绿色按钮缩小地图;或者点击绿色箭头查看邻近地区的地图。


METAR-TAF: